TimeEDT,TemperatureF,Dew PointF,Humidity,Sea Level PressureIn,VisibilityMPH,Wind Direction,Wind SpeedMPH,Gust SpeedMPH,PrecipitationIn,Events,Conditions,WindDirDegrees,DateUTC
12:15 AM,32.2,29.5,90,30.30,10.0,Calm,Calm,-,N/A,,Clear,0,2013-03-10 05:15:00
12:35 AM,32.2,29.7,90,30.30,10.0,Calm,Calm,-,N/A,,Clear,0,2013-03-10 05:35:00
12:55 AM,32.0,29.7,91,30.30,10.0,Calm,Calm,-,N/A,,Clear,0,2013-03-10 05:55:00
1:15 AM,31.8,29.3,90,30.30,10.0,Calm,Calm,-,N/A,,Clear,0,2013-03-10 06:15:00
1:35 AM,31.1,28.8,91,30.30,10.0,Calm,Calm,-,N/A,,Clear,0,2013-03-10 06:35:00
1:55 AM,30.4,28.0,91,30.30,10.0,Calm,Calm,-,N/A,,Clear,0,2013-03-10 06:55:00
3:15 AM,31.1,29.1,92,30.29,10.0,Calm,Calm,-,N/A,,Clear,0,2013-03-10 07:15:00
3:35 AM,30.7,28.4,91,30.28,10.0,Calm,Calm,-,N/A,,Clear,0,2013-03-10 07:35:00
3:55 AM,29.8,28.2,94,30.27,10.0,Calm,Calm,-,N/A,,Clear,0,2013-03-10 07:55:00
4:15 AM,30.2,28.0,92,30.27,10.0,Calm,Calm,-,N/A,,Clear,0,2013-03-10 08:15:00
4:35 AM,30.2,28.2,92,30.27,10.0,Calm,Calm,-,N/A,,Clear,0,2013-03-10 08:35:00
4:55 AM,29.3,27.5,93,30.27,10.0,Calm,Calm,-,N/A,,Clear,0,2013-03-10 08:55:00
5:35 AM,29.3,27.9,94,30.27,10.0,Calm,Calm,-,N/A,,Clear,0,2013-03-10 09:35:00
5:55 AM,28.9,27.3,94,30.28,10.0,Calm,Calm,-,N/A,,Clear,0,2013-03-10 09:55:00
6:15 AM,28.9,27.3,94,30.28,10.0,Calm,Calm,-,N/A,,Clear,0,2013-03-10 10:15:00
6:35 AM,29.1,27.5,94,30.29,10.0,Calm,Calm,-,N/A,,Clear,0,2013-03-10 10:35:00
6:55 AM,28.8,27.1,94,30.29,10.0,Calm,Calm,-,N/A,,Clear,0,2013-03-10 10:55:00
7:15 AM,28.4,27.0,94,30.30,10.0,Calm,Calm,-,N/A,,Clear,0,2013-03-10 11:15:00
7:35 AM,28.0,26.6,94,30.29,7.0,Calm,Calm,-,N/A,,Clear,0,2013-03-10 11:35:00
7:55 AM,28.4,27.0,94,30.29,5.0,Calm,Calm,-,N/A,,Clear,0,2013-03-10 11:55:00
8:15 AM,28.0,26.6,94,30.29,7.0,Calm,Calm,-,N/A,,Clear,0,2013-03-10 12:15:00
8:35 AM,30.6,29.1,94,30.30,10.0,Calm,Calm,-,N/A,,Clear,0,2013-03-10 12:35:00
8:55 AM,32.5,31.1,94,30.31,10.0,Calm,Calm,-,N/A,,Clear,0,2013-03-10 12:55:00
9:15 AM,35.6,33.1,91,30.31,10.0,Calm,Calm,-,N/A,,Clear,0,2013-03-10 13:15:00
9:35 AM,39.0,35.2,86,30.30,10.0,Calm,Calm,-,N/A,,Clear,0,2013-03-10 13:35:00
10:15 AM,45.3,35.1,67,30.32,10.0,Calm,Calm,-,N/A,,Clear,0,2013-03-10 14:15:00
10:35 AM,48.7,33.8,56,30.32,10.0,Calm,Calm,-,N/A,,Clear,0,2013-03-10 14:35:00
10:55 AM,50.7,32.5,50,30.32,10.0,Calm,Calm,-,N/A,,Clear,0,2013-03-10 14:55:00
11:15 AM,53.6,32.2,44,30.33,10.0,Calm,Calm,-,N/A,,Clear,0,2013-03-10 15:15:00
11:35 AM,56.3,31.8,39,30.32,10.0,East,5.8,-,N/A,,Clear,100,2013-03-10 15:35:00
11:55 AM,59.2,30.6,34,30.30,10.0,SE,5.8,-,N/A,,Clear,140,2013-03-10 15:55:00
12:15 PM,60.6,27.7,29,30.29,10.0,East,4.6,-,N/A,,Clear,90,2013-03-10 16:15:00
12:35 PM,61.7,25.7,25,30.29,10.0,Calm,Calm,-,N/A,,Clear,0,2013-03-10 16:35:00
12:55 PM,62.6,26.2,25,30.29,10.0,East,4.6,-,N/A,,Clear,90,2013-03-10 16:55:00
1:15 PM,63.1,25.2,24,30.28,10.0,Calm,Calm,-,N/A,,Clear,0,2013-03-10 17:15:00
1:35 PM,64.6,25.9,23,30.27,10.0,NE,4.6,-,N/A,,Clear,50,2013-03-10 17:35:00
1:55 PM,64.0,25.2,23,30.27,10.0,SSW,4.6,-,N/A,,Clear,200,2013-03-10 17:55:00
2:15 PM,64.8,25.0,22,30.25,10.0,SSE,5.8,-,N/A,,Clear,150,2013-03-10 18:15:00
2:35 PM,65.8,24.3,21,30.24,10.0,SE,4.6,-,N/A,,Clear,130,2013-03-10 18:35:00
2:55 PM,65.8,23.7,20,30.24,10.0,SSE,3.5,-,N/A,,Clear,150,2013-03-10 18:55:00
3:15 PM,66.4,22.6,19,30.23,10.0,SSE,6.9,-,N/A,,Clear,150,2013-03-10 19:15:00
3:35 PM,66.6,20.8,18,30.23,10.0,East,5.8,-,N/A,,Clear,100,2013-03-10 19:35:00
3:55 PM,66.7,21.6,18,30.22,10.0,ESE,5.8,-,N/A,,Clear,110,2013-03-10 19:55:00
4:15 PM,66.9,20.8,17,30.21,10.0,ESE,6.9,-,N/A,,Clear,110,2013-03-10 20:15:00
4:35 PM,67.5,20.8,17,30.21,10.0,SE,5.8,-,N/A,,Clear,130,2013-03-10 20:35:00
5:15 PM,67.8,21.0,17,30.21,10.0,East,5.8,-,N/A,,Clear,100,2013-03-10 21:15:00
5:35 PM,66.7,19.9,17,30.20,10.0,SE,6.9,-,N/A,,Clear,130,2013-03-10 21:35:00
5:55 PM,67.3,19.6,16,30.21,10.0,SSE,5.8,-,N/A,,Clear,150,2013-03-10 21:55:00
6:15 PM,66.7,19.9,17,30.21,10.0,SE,5.8,-,N/A,,Clear,140,2013-03-10 22:15:00
6:35 PM,65.3,19.8,18,30.21,10.0,SE,3.5,-,N/A,,Clear,140,2013-03-10 22:35:00
6:55 PM,63.5,21.0,20,30.21,10.0,Calm,Calm,-,N/A,,Clear,0,2013-03-10 22:55:00
7:15 PM,61.9,22.5,22,30.22,10.0,Calm,Calm,-,N/A,,Clear,0,2013-03-10 23:15:00
7:35 PM,59.2,26.4,29,30.22,10.0,Calm,Calm,-,N/A,,Clear,0,2013-03-10 23:35:00
7:55 PM,54.5,28.4,37,30.23,10.0,Calm,Calm,-,N/A,,Clear,0,2013-03-10 23:55:00
8:15 PM,53.4,27.1,36,30.22,10.0,Calm,Calm,-,N/A,,Clear,0,2013-03-11 00:15:00
8:35 PM,49.1,31.1,50,30.22,10.0,Calm,Calm,-,N/A,,Clear,0,2013-03-11 00:35:00
8:55 PM,48.7,29.7,48,30.22,10.0,Calm,Calm,-,N/A,,Clear,0,2013-03-11 00:55:00
9:15 PM,47.7,30.4,51,30.23,10.0,Calm,Calm,-,N/A,,Clear,0,2013-03-11 01:15:00
9:35 PM,47.3,30.0,51,30.23,10.0,Calm,Calm,-,N/A,,Clear,0,2013-03-11 01:35:00
9:55 PM,44.8,30.7,58,30.23,10.0,Calm,Calm,-,N/A,,Clear,0,2013-03-11 01:55:00
10:15 PM,42.6,32.7,68,30.23,10.0,Calm,Calm,-,N/A,,Clear,0,2013-03-11 02:15:00
10:35 PM,43.3,31.6,63,30.24,10.0,Calm,Calm,-,N/A,,Clear,0,2013-03-11 02:35:00
10:55 PM,41.9,32.4,69,30.24,10.0,Calm,Calm,-,N/A,,Clear,0,2013-03-11 02:55:00
11:15 PM,41.2,31.8,69,30.25,10.0,Calm,Calm,-,N/A,,Clear,0,2013-03-11 03:15:00
11:35 PM,41.2,30.9,67,30.24,10.0,Calm,Calm,-,N/A,,Clear,0,2013-03-11 03:35:00
11:55 PM,41.4,29.8,64,30.24,10.0,Calm,Calm,-,N/A,,Clear,0,2013-03-11 03:55:00
12:15 AM,39.7,30.9,71,30.25,10.0,Calm,Calm,-,N/A,,Clear,0,2013-03-11 04:15:00
12:35 AM,38.5,30.2,72,30.24,10.0,Calm,Calm,-,N/A,,Clear,0,2013-03-11 04:35:00